createdAt,value
2018-02-11T00:00:43.990Z,76.97
2018-02-11T00:03:11.558Z,77.12
2018-02-11T00:05:39.440Z,77.09
2018-02-11T00:08:06.972Z,77.35
2018-02-11T00:10:34.537Z,77.23
2018-02-11T00:13:02.269Z,77.17
2018-02-11T00:15:29.803Z,77.00
2018-02-11T00:17:57.362Z,76.92
2018-02-11T00:20:24.926Z,77.01
2018-02-11T00:22:52.557Z,77.47
2018-02-11T00:25:20.246Z,76.85
2018-02-11T00:27:47.787Z,77.73
2018-02-11T00:30:15.446Z,77.99
2018-02-11T00:32:42.987Z,77.90
2018-02-11T00:35:10.537Z,77.81
2018-02-11T00:37:43.674Z,77.57
2018-02-11T00:40:11.239Z,77.75
2018-02-11T00:42:38.783Z,77.58
2018-02-11T00:45:06.400Z,77.44
2018-02-11T00:47:34.017Z,77.81
2018-02-11T00:50:01.610Z,77.75
2018-02-11T00:52:29.153Z,77.76
2018-02-11T00:54:56.714Z,77.72
2018-02-11T00:57:24.275Z,77.81
2018-02-11T00:59:51.811Z,77.96
2018-02-11T01:02:19.379Z,78.51
2018-02-11T01:04:46.925Z,78.80
2018-02-11T01:07:14.680Z,78.73
2018-02-11T01:09:42.257Z,78.93
2018-02-11T01:12:09.805Z,78.62
2018-02-11T01:14:37.338Z,78.81
2018-02-11T01:17:04.896Z,78.63
2018-02-11T01:19:32.417Z,78.61
2018-02-11T01:22:00.076Z,78.68
2018-02-11T01:24:27.634Z,78.76
2018-02-11T01:26:55.607Z,78.79
2018-02-11T01:29:23.156Z,78.96
2018-02-11T01:31:50.737Z,78.85
2018-02-11T01:34:18.256Z,78.68
2018-02-11T01:36:45.804Z,78.40
2018-02-11T01:39:13.345Z,78.82
2018-02-11T01:41:40.886Z,78.77
2018-02-11T01:44:08.401Z,78.60
2018-02-11T01:46:35.960Z,78.63
2018-02-11T01:49:03.512Z,78.66
2018-02-11T01:51:31.044Z,78.52
2018-02-11T01:53:58.601Z,78.75
2018-02-11T01:56:26.134Z,78.19
2018-02-11T01:58:54.032Z,78.23
2018-02-11T02:01:21.612Z,78.75
2018-02-11T02:03:49.417Z,79.04
2018-02-11T02:06:16.991Z,78.75
2018-02-11T02:08:44.550Z,78.87
2018-02-11T02:11:12.079Z,78.92
2018-02-11T02:13:39.681Z,78.92
2018-02-11T02:16:07.244Z,78.86
2018-02-11T02:18:34.777Z,78.90
2018-02-11T02:21:02.336Z,78.68
2018-02-11T02:23:30.218Z,78.73
2018-02-11T02:25:57.732Z,78.74
2018-02-11T02:28:25.548Z,79.11
2018-02-11T02:30:53.138Z,79.04
2018-02-11T02:33:20.976Z,79.00
2018-02-11T02:35:48.507Z,78.97
2018-02-11T02:38:16.052Z,78.95
2018-02-11T02:40:43.569Z,79.70
2018-02-11T02:43:11.087Z,80.10
2018-02-11T02:45:38.660Z,80.42
2018-02-11T02:48:06.227Z,80.03
2018-02-11T02:50:33.790Z,79.90
2018-02-11T02:53:01.663Z,79.85
2018-02-11T02:55:29.199Z,79.79
2018-02-11T02:57:56.771Z,80.14
2018-02-11T03:00:24.334Z,79.94
2018-02-11T03:02:52.010Z,79.21
2018-02-11T03:05:19.611Z,79.30
2018-02-11T03:07:47.158Z,79.05
2018-02-11T03:10:14.714Z,78.88
2018-02-11T03:12:42.240Z,79.41
2018-02-11T03:15:09.793Z,79.29
2018-02-11T03:17:37.308Z,79.31
2018-02-11T03:20:04.847Z,79.50
2018-02-11T03:22:32.700Z,79.55
2018-02-11T03:25:00.235Z,79.83
2018-02-11T03:27:27.764Z,79.92
2018-02-11T03:29:55.360Z,79.95
2018-02-11T03:32:23.150Z,79.97
2018-02-11T03:34:50.733Z,79.60
2018-02-11T03:37:18.254Z,79.57
2018-02-11T03:39:45.841Z,79.14
2018-02-11T03:42:13.623Z,79.06
2018-02-11T03:44:41.170Z,79.26
2018-02-11T03:47:08.745Z,79.70
2018-02-11T03:49:36.544Z,79.55
2018-02-11T03:52:04.135Z,79.65
2018-02-11T03:54:31.660Z,79.30
2018-02-11T03:56:59.224Z,79.29
2018-02-11T03:59:26.798Z,79.67
2018-02-11T04:01:54.593Z,79.70
2018-02-11T04:04:22.150Z,79.61
2018-02-11T04:06:49.693Z,79.76
2018-02-11T04:09:17.473Z,79.78
2018-02-11T04:11:45.020Z,79.96
2018-02-11T04:14:12.547Z,80.26
2018-02-11T04:16:40.104Z,80.32
2018-02-11T04:19:07.633Z,80.64
2018-02-11T04:21:35.171Z,80.49
2018-02-11T04:24:03.049Z,80.52
2018-02-11T04:26:30.909Z,80.73
2018-02-11T04:28:58.468Z,80.83
2018-02-11T04:31:26.242Z,81.17
2018-02-11T04:33:53.802Z,80.77
2018-02-11T04:36:21.338Z,80.89
2018-02-11T04:38:48.878Z,80.62
2018-02-11T04:41:16.460Z,80.81
2018-02-11T04:43:43.991Z,81.32
2018-02-11T04:46:11.536Z,81.41
2018-02-11T04:48:39.085Z,81.19
2018-02-11T04:51:06.614Z,81.27
2018-02-11T04:53:34.206Z,81.33
2018-02-11T04:56:01.739Z,81.39
2018-02-11T04:58:29.300Z,81.25
2018-02-11T05:00:56.865Z,81.23
2018-02-11T05:03:24.414Z,81.12
2018-02-11T05:05:52.018Z,80.58
2018-02-11T05:08:19.672Z,80.57
2018-02-11T05:10:47.216Z,80.84
2018-02-11T05:13:14.778Z,80.65
2018-02-11T05:15:42.315Z,80.32
2018-02-11T05:18:09.866Z,80.11
2018-02-11T05:20:37.662Z,80.17
2018-02-11T05:23:05.432Z,80.69
2018-02-11T05:25:33.026Z,80.91
2018-02-11T05:28:00.596Z,80.91
2018-02-11T05:30:28.168Z,80.78
2018-02-11T05:32:55.736Z,80.55
2018-02-11T05:35:23.298Z,80.39
2018-02-11T05:37:50.843Z,80.41
2018-02-11T05:40:18.399Z,80.38
2018-02-11T05:42:45.958Z,80.73
2018-02-11T05:45:13.525Z,80.55
2018-02-11T05:47:41.140Z,80.66
2018-02-11T05:50:09.004Z,80.52
2018-02-11T05:52:36.546Z,80.26
2018-02-11T05:55:04.155Z,80.19
2018-02-11T05:57:31.735Z,80.21
2018-02-11T05:59:59.555Z,80.07
2018-02-11T06:02:27.422Z,79.92
2018-02-11T06:04:54.979Z,80.39
2018-02-11T06:07:22.515Z,80.52
2018-02-11T06:09:50.090Z,80.47
2018-02-11T06:12:17.630Z,80.55
2018-02-11T06:14:45.192Z,80.37
2018-02-11T06:17:12.810Z,80.50
2018-02-11T06:19:40.463Z,80.70
2018-02-11T06:22:08.054Z,81.03
2018-02-11T06:24:35.591Z,80.66
2018-02-11T06:27:03.139Z,80.64
2018-02-11T06:29:30.673Z,80.90
2018-02-11T06:31:58.215Z,81.00
2018-02-11T06:34:25.781Z,80.53
2018-02-11T06:36:53.365Z,80.44
2018-02-11T06:39:20.900Z,79.82
2018-02-11T06:41:48.446Z,79.66
2018-02-11T06:44:16.027Z,79.50
2018-02-11T06:46:43.925Z,79.57
2018-02-11T06:49:11.791Z,79.81
2018-02-11T06:51:39.355Z,79.76
2018-02-11T06:54:06.859Z,79.64
2018-02-11T06:56:34.413Z,80.08
2018-02-11T06:59:01.959Z,79.71
2018-02-11T07:01:29.550Z,79.58
2018-02-11T07:03:57.167Z,79.66
2018-02-11T07:06:25.029Z,79.47
2018-02-11T07:08:52.894Z,79.39
2018-02-11T07:11:20.452Z,79.30
2018-02-11T07:13:48.321Z,79.18
2018-02-11T07:16:15.850Z,79.03
2018-02-11T07:18:43.383Z,78.55
2018-02-11T07:21:11.206Z,78.48
2018-02-11T07:23:39.032Z,78.75
2018-02-11T07:26:06.594Z,78.84
2018-02-11T07:28:34.209Z,78.46
2018-02-11T07:31:01.911Z,77.70
2018-02-11T07:33:29.488Z,77.59
2018-02-11T07:35:57.053Z,77.61
2018-02-11T07:38:24.668Z,77.06
2018-02-11T07:40:52.330Z,77.02
2018-02-11T07:43:19.896Z,77.07
2018-02-11T07:45:47.508Z,76.67
2018-02-11T07:48:15.018Z,76.39
2018-02-11T07:50:42.629Z,76.12
2018-02-11T07:53:10.306Z,76.19
2018-02-11T07:55:37.899Z,75.93
2018-02-11T07:58:05.753Z,75.86
2018-02-11T08:00:33.316Z,75.59
2018-02-11T08:03:00.901Z,75.86
2018-02-11T08:05:28.524Z,75.71
2018-02-11T08:07:56.609Z,75.66
2018-02-11T08:10:24.269Z,75.42
2018-02-11T08:12:52.141Z,75.57
2018-02-11T08:15:19.716Z,75.20
2018-02-11T08:17:47.291Z,74.87
2018-02-11T08:20:14.824Z,74.81
2018-02-11T08:22:42.411Z,74.78
2018-02-11T08:25:09.993Z,74.41
2018-02-11T08:27:37.533Z,74.91
2018-02-11T08:30:05.103Z,74.61
2018-02-11T08:32:32.661Z,74.52
2018-02-11T08:35:00.220Z,74.09
2018-02-11T08:37:27.761Z,73.47
2018-02-11T08:39:55.652Z,72.88
2018-02-11T08:42:23.192Z,72.53
2018-02-11T08:44:50.795Z,71.71
2018-02-11T08:47:18.388Z,71.30
2018-02-11T08:49:46.268Z,70.86
2018-02-11T08:52:13.844Z,70.86
2018-02-11T08:54:41.421Z,70.92
2018-02-11T08:57:08.926Z,71.49
2018-02-11T08:59:36.489Z,71.23
2018-02-11T09:02:04.266Z,71.05
2018-02-11T09:04:32.136Z,70.52
2018-02-11T09:06:59.673Z,70.01
2018-02-11T09:09:27.462Z,70.62
2018-02-11T09:11:55.334Z,69.88
2018-02-11T09:14:22.864Z,69.74
2018-02-11T09:16:50.428Z,70.19
2018-02-11T09:19:17.959Z,69.51
2018-02-11T09:21:45.503Z,69.41
2018-02-11T09:24:13.049Z,69.27
2018-02-11T09:26:40.590Z,68.64
2018-02-11T09:29:08.458Z,68.46
2018-02-11T09:31:35.980Z,67.71
2018-02-11T09:34:03.499Z,67.74
2018-02-11T09:36:31.062Z,67.15
2018-02-11T09:38:58.665Z,67.25
2018-02-11T09:41:26.468Z,66.42
2018-02-11T09:43:54.904Z,66.52
2018-02-11T09:46:22.442Z,66.36
2018-02-11T09:48:49.973Z,66.21
2018-02-11T09:51:17.523Z,66.10
2018-02-11T09:53:45.072Z,65.92
2018-02-11T09:56:12.618Z,66.29
2018-02-11T09:58:40.144Z,66.45
2018-02-11T10:01:07.983Z,66.90
2018-02-11T10:03:35.770Z,66.73
2018-02-11T10:06:03.327Z,65.95
2018-02-11T10:08:30.850Z,65.80
2018-02-11T10:10:58.386Z,65.40
2018-02-11T10:13:25.947Z,65.44
2018-02-11T10:15:53.477Z,65.33
2018-02-11T10:18:21.050Z,65.17
2018-02-11T10:20:48.589Z,65.02
2018-02-11T10:23:16.110Z,64.04
2018-02-11T10:25:43.652Z,63.37
2018-02-11T10:28:11.172Z,62.94
2018-02-11T10:30:38.769Z,63.25
2018-02-11T10:33:06.679Z,63.34
2018-02-11T10:35:34.212Z,63.03
2018-02-11T10:38:01.751Z,62.98
2018-02-11T10:40:29.567Z,62.98
2018-02-11T10:42:57.125Z,62.74
2018-02-11T10:45:24.651Z,62.39
2018-02-11T10:47:52.219Z,63.03
2018-02-11T10:50:19.762Z,62.91
2018-02-11T10:52:47.692Z,62.83
2018-02-11T10:55:15.247Z,62.46
2018-02-11T10:57:42.781Z,62.97
2018-02-11T11:00:10.296Z,63.27
2018-02-11T11:02:37.844Z,63.89
2018-02-11T11:05:05.372Z,64.25
2018-02-11T11:07:32.951Z,64.40
2018-02-11T11:10:00.503Z,64.85
2018-02-11T11:12:28.034Z,67.24
2018-02-11T11:14:55.938Z,70.26
2018-02-11T11:17:24.789Z,72.25
2018-02-11T11:19:52.633Z,73.40
2018-02-11T11:22:20.155Z,74.38
2018-02-11T11:24:47.708Z,74.05
2018-02-11T11:27:15.277Z,74.27
2018-02-11T11:29:42.905Z,74.15
2018-02-11T11:32:10.792Z,75.08
2018-02-11T11:34:38.303Z,74.68
2018-02-11T11:37:05.910Z,75.12
2018-02-11T11:39:33.484Z,75.90
2018-02-11T11:42:01.237Z,75.43
2018-02-11T11:44:28.867Z,75.41
2018-02-11T11:46:56.374Z,75.11
2018-02-11T11:49:23.909Z,74.57
2018-02-11T11:51:51.693Z,74.07
2018-02-11T11:54:19.216Z,73.54
2018-02-11T11:56:47.022Z,73.83
2018-02-11T11:59:14.562Z,73.01
2018-02-11T12:01:42.111Z,72.67
2018-02-11T12:04:09.673Z,72.51
2018-02-11T12:06:37.400Z,72.29
2018-02-11T12:09:04.997Z,71.70
2018-02-11T12:11:32.602Z,71.86
2018-02-11T12:14:00.316Z,72.05
2018-02-11T12:16:27.849Z,72.87
2018-02-11T12:18:55.391Z,74.39
2018-02-11T12:21:22.935Z,74.03
2018-02-11T12:23:50.698Z,73.73
2018-02-11T12:26:18.225Z,74.90
2018-02-11T12:28:45.764Z,75.26
2018-02-11T12:31:13.347Z,76.10
2018-02-11T12:33:40.898Z,77.15
2018-02-11T12:36:08.455Z,77.56
2018-02-11T12:38:35.996Z,78.24
2018-02-11T12:41:03.558Z,80.01
2018-02-11T12:43:31.091Z,80.88
2018-02-11T12:45:58.674Z,81.66
2018-02-11T12:48:26.517Z,81.97
2018-02-11T12:50:54.094Z,82.46
2018-02-11T12:53:21.952Z,83.65
2018-02-11T12:55:49.566Z,84.04
2018-02-11T12:58:17.482Z,84.56
2018-02-11T13:00:45.038Z,85.13
2018-02-11T13:03:12.563Z,84.98
2018-02-11T13:05:40.147Z,85.50
2018-02-11T13:08:07.735Z,85.78
2018-02-11T13:10:35.563Z,85.46
2018-02-11T13:13:03.121Z,85.16
2018-02-11T13:15:30.744Z,84.34
2018-02-11T13:17:58.318Z,85.45
2018-02-11T13:20:25.944Z,85.65
2018-02-11T13:22:53.507Z,85.31
2018-02-11T13:25:21.356Z,85.73
2018-02-11T13:27:48.980Z,86.24
2018-02-11T13:30:16.510Z,86.25
2018-02-11T13:32:44.365Z,86.29
2018-02-11T13:35:12.006Z,86.46
2018-02-11T13:37:39.614Z,86.61
2018-02-11T13:40:07.145Z,86.70
2018-02-11T13:42:34.710Z,86.85
2018-02-11T13:45:02.296Z,87.06
2018-02-11T13:47:30.081Z,86.84
2018-02-11T13:49:57.637Z,87.32
2018-02-11T13:52:25.192Z,87.50
2018-02-11T13:54:52.765Z,87.72
2018-02-11T13:57:20.380Z,88.55
2018-02-11T13:59:47.991Z,89.13
2018-02-11T14:02:15.554Z,89.16
2018-02-11T14:04:43.454Z,89.38
2018-02-11T14:07:11.010Z,89.64
2018-02-11T14:09:38.564Z,89.23
2018-02-11T14:12:06.149Z,89.52
2018-02-11T14:14:33.693Z,89.88
2018-02-11T14:17:01.250Z,90.54
2018-02-11T14:19:28.832Z,90.30
2018-02-11T14:21:56.375Z,90.45
2018-02-11T14:24:23.985Z,90.33
2018-02-11T14:26:51.544Z,90.54
2018-02-11T14:29:19.108Z,90.28
2018-02-11T14:31:46.934Z,90.76
2018-02-11T14:34:14.481Z,91.04
2018-02-11T14:36:42.081Z,91.17
2018-02-11T14:39:09.933Z,91.29
2018-02-11T14:41:37.481Z,91.21
2018-02-11T14:44:05.142Z,91.02
2018-02-11T14:46:32.694Z,91.31
2018-02-11T14:49:00.239Z,91.50
2018-02-11T14:51:27.856Z,91.64
2018-02-11T14:53:55.493Z,91.25
2018-02-11T14:56:23.043Z,90.99
2018-02-11T14:58:50.998Z,91.50
2018-02-11T15:01:18.616Z,91.76
2018-02-11T15:03:46.275Z,91.97
2018-02-11T15:06:13.934Z,91.82
2018-02-11T15:08:41.703Z,91.28
2018-02-11T15:11:09.256Z,91.21
2018-02-11T15:13:36.864Z,91.79
2018-02-11T15:16:04.669Z,91.63
2018-02-11T15:18:32.275Z,91.42
2018-02-11T15:21:00.427Z,91.70
2018-02-11T15:23:28.062Z,91.45
2018-02-11T15:25:55.625Z,91.48
2018-02-11T15:28:23.295Z,91.50
2018-02-11T15:30:50.902Z,91.52
2018-02-11T15:33:18.462Z,91.34
2018-02-11T15:35:46.042Z,91.18
2018-02-11T15:38:13.634Z,91.13
2018-02-11T15:40:41.321Z,91.41
2018-02-11T15:43:08.903Z,91.26
2018-02-11T15:45:36.459Z,91.01
2018-02-11T15:48:04.305Z,90.77
2018-02-11T15:50:32.140Z,90.94
2018-02-11T15:52:59.713Z,90.84
2018-02-11T15:55:27.359Z,90.17
2018-02-11T15:57:54.900Z,90.16
2018-02-11T16:00:22.476Z,90.41
2018-02-11T16:02:50.380Z,90.46
2018-02-11T16:05:17.946Z,90.33
2018-02-11T16:07:45.568Z,89.79
2018-02-11T16:10:13.454Z,89.29
2018-02-11T16:12:41.079Z,89.04
2018-02-11T16:15:08.651Z,88.77
2018-02-11T16:17:36.310Z,89.39
2018-02-11T16:20:03.979Z,89.08
2018-02-11T16:22:31.505Z,88.98
2018-02-11T16:24:59.074Z,88.77
2018-02-11T16:27:26.667Z,88.47
2018-02-11T16:29:54.385Z,88.47
2018-02-11T16:32:21.988Z,88.29
2018-02-11T16:34:49.566Z,88.40
2018-02-11T16:37:17.276Z,88.52
2018-02-11T16:39:44.952Z,88.75
2018-02-11T16:42:12.687Z,88.89
2018-02-11T16:44:40.256Z,88.40
2018-02-11T16:47:08.110Z,88.62
2018-02-11T16:49:35.814Z,88.62
2018-02-11T16:52:03.412Z,88.32
2018-02-11T16:54:30.996Z,88.20
2018-02-11T16:56:58.583Z,87.97
2018-02-11T16:59:26.205Z,87.76
2018-02-11T17:01:53.817Z,87.69
2018-02-11T17:04:21.382Z,87.28
2018-02-11T17:06:48.990Z,87.53
2018-02-11T17:09:16.762Z,87.57
2018-02-11T17:11:44.390Z,87.52
2018-02-11T17:14:11.947Z,87.45
2018-02-11T17:16:39.609Z,87.83
2018-02-11T17:19:07.277Z,87.32
2018-02-11T17:21:34.830Z,87.45
2018-02-11T17:24:03.035Z,87.29
2018-02-11T17:26:30.688Z,87.06
2018-02-11T17:28:58.417Z,87.28
2018-02-11T17:31:26.231Z,87.09
2018-02-11T17:33:53.827Z,86.91
2018-02-11T17:36:21.369Z,86.54
2018-02-11T17:38:48.980Z,87.05
2018-02-11T17:41:16.512Z,86.77
2018-02-11T17:43:44.038Z,86.50
2018-02-11T17:46:11.600Z,86.86
2018-02-11T17:48:39.138Z,86.79
2018-02-11T17:51:06.710Z,86.67
2018-02-11T17:53:34.234Z,86.40
2018-02-11T17:56:01.770Z,86.63
2018-02-11T17:58:29.331Z,86.28
2018-02-11T18:00:56.922Z,86.43
2018-02-11T18:03:24.726Z,86.32
2018-02-11T18:05:52.301Z,86.12
2018-02-11T18:08:19.885Z,86.08
2018-02-11T18:10:47.462Z,85.82
2018-02-11T18:13:15.050Z,85.72
2018-02-11T18:15:42.843Z,85.81
2018-02-11T18:18:10.363Z,85.33
2018-02-11T18:20:37.934Z,85.27
2018-02-11T18:23:05.490Z,85.29
2018-02-11T18:25:33.037Z,85.16
2018-02-11T18:28:01.005Z,85.23
2018-02-11T18:30:28.535Z,85.47
2018-02-11T18:32:56.070Z,85.37
2018-02-11T18:35:23.919Z,84.70
2018-02-11T18:37:51.498Z,84.41
2018-02-11T18:40:19.122Z,84.61
2018-02-11T18:42:46.676Z,84.46
2018-02-11T18:45:14.498Z,84.17
2018-02-11T18:47:42.046Z,84.30
2018-02-11T18:50:09.581Z,83.94
2018-02-11T18:52:37.226Z,84.05
2018-02-11T18:55:04.777Z,83.91
2018-02-11T18:57:32.303Z,83.86
2018-02-11T18:59:59.847Z,83.73
2018-02-11T19:02:27.389Z,83.65
2018-02-11T19:04:54.961Z,83.65
2018-02-11T19:07:22.496Z,83.78
2018-02-11T19:09:50.317Z,83.75
2018-02-11T19:12:17.891Z,83.31
2018-02-11T19:14:45.457Z,83.40
2018-02-11T19:17:13.070Z,83.33
2018-02-11T19:19:40.612Z,83.45
2018-02-11T19:22:08.263Z,83.51
2018-02-11T19:24:35.839Z,83.69
2018-02-11T19:27:03.478Z,83.68
2018-02-11T19:29:31.077Z,83.57
2018-02-11T19:31:58.841Z,83.63
2018-02-11T19:34:26.510Z,83.65
2018-02-11T19:36:54.458Z,83.41
2018-02-11T19:39:22.142Z,83.22
2018-02-11T19:41:49.877Z,83.34
2018-02-11T19:44:17.434Z,83.24
2018-02-11T19:46:45.032Z,83.46
2018-02-11T19:49:12.929Z,83.52
2018-02-11T19:51:40.643Z,83.36
2018-02-11T19:54:08.264Z,83.43
2018-02-11T19:56:35.834Z,83.39
2018-02-11T19:59:03.395Z,83.37
2018-02-11T20:01:30.991Z,83.60
2018-02-11T20:03:58.596Z,83.23
2018-02-11T20:06:26.193Z,83.49
2018-02-11T20:08:53.777Z,83.27
2018-02-11T20:11:21.981Z,83.52
2018-02-11T20:13:49.642Z,83.48
2018-02-11T20:16:17.201Z,83.25
2018-02-11T20:18:44.762Z,83.60
2018-02-11T20:21:12.317Z,83.68
2018-02-11T20:23:39.855Z,83.28
2018-02-11T20:26:07.461Z,83.16
2018-02-11T20:28:35.011Z,83.53
2018-02-11T20:31:02.684Z,83.73
2018-02-11T20:33:30.283Z,83.53
2018-02-11T20:35:58.156Z,83.85
2018-02-11T20:38:25.788Z,83.72
2018-02-11T20:40:53.485Z,83.93
2018-02-11T20:43:21.397Z,83.92
2018-02-11T20:45:49.234Z,84.04
2018-02-11T20:48:16.778Z,83.82
2018-02-11T20:50:44.802Z,83.79
2018-02-11T20:53:12.571Z,83.82
2018-02-11T20:55:40.181Z,83.94
2018-02-11T20:58:07.941Z,84.01
2018-02-11T21:00:35.523Z,84.16
2018-02-11T21:03:03.315Z,84.17
2018-02-11T21:05:33.194Z,84.08
2018-02-11T21:08:01.000Z,84.00
2018-02-11T21:10:28.725Z,84.21
2018-02-11T21:12:56.274Z,84.24
2018-02-11T21:15:23.947Z,84.29
2018-02-11T21:17:52.323Z,84.28
2018-02-11T21:20:19.947Z,84.19
2018-02-11T21:22:48.425Z,84.03
2018-02-11T21:25:15.971Z,84.54
2018-02-11T21:27:43.549Z,84.51
2018-02-11T21:30:12.220Z,84.68
2018-02-11T21:32:39.796Z,84.56
2018-02-11T21:35:07.383Z,84.78
2018-02-11T21:37:34.922Z,84.60
2018-02-11T21:40:02.776Z,84.66
2018-02-11T21:42:30.377Z,84.58
2018-02-11T21:44:58.009Z,84.42
2018-02-11T21:47:25.554Z,84.71
2018-02-11T21:49:53.140Z,84.93
2018-02-11T21:52:20.684Z,85.06
2018-02-11T21:54:48.261Z,84.87
2018-02-11T21:57:15.865Z,84.82
2018-02-11T21:59:43.790Z,85.01
2018-02-11T22:02:11.648Z,84.88
2018-02-11T22:04:39.921Z,84.96
2018-02-11T22:07:07.463Z,85.28
2018-02-11T22:09:35.066Z,85.46
2018-02-11T22:12:02.608Z,85.65
2018-02-11T22:14:30.146Z,85.67
2018-02-11T22:16:57.695Z,85.33
2018-02-11T22:19:25.583Z,85.90
2018-02-11T22:21:53.164Z,86.12
2018-02-11T22:24:20.759Z,86.03
2018-02-11T22:26:48.302Z,85.99
2018-02-11T22:29:15.909Z,85.85
2018-02-11T22:31:43.472Z,86.01
2018-02-11T22:34:11.040Z,85.83
2018-02-11T22:36:38.922Z,85.84
2018-02-11T22:39:06.444Z,86.09
2018-02-11T22:41:33.995Z,86.07
2018-02-11T22:44:01.813Z,86.35
2018-02-11T22:46:29.404Z,86.20
2018-02-11T22:48:57.166Z,86.15
2018-02-11T22:51:24.691Z,86.32
2018-02-11T22:53:52.247Z,86.36
2018-02-11T22:56:20.029Z,86.39
2018-02-11T22:58:47.583Z,86.52
2018-02-11T23:01:15.255Z,86.56
2018-02-11T23:03:42.799Z,86.31
2018-02-11T23:06:10.320Z,86.38
2018-02-11T23:08:37.879Z,86.40
2018-02-11T23:11:05.641Z,86.44
2018-02-11T23:13:33.217Z,86.49
2018-02-11T23:16:00.751Z,86.80
2018-02-11T23:18:28.274Z,86.58
2018-02-11T23:20:55.852Z,86.46
2018-02-11T23:23:23.472Z,86.58
2018-02-11T23:25:51.016Z,86.58
2018-02-11T23:28:18.535Z,86.96
2018-02-11T23:30:46.114Z,87.04
2018-02-11T23:33:13.679Z,87.12
2018-02-11T23:35:41.505Z,87.25
2018-02-11T23:38:09.320Z,87.10
2018-02-11T23:40:36.861Z,87.01
2018-02-11T23:43:04.471Z,86.98
2018-02-11T23:45:32.032Z,86.75
2018-02-11T23:47:59.573Z,86.80
2018-02-11T23:50:27.187Z,86.82
2018-02-11T23:52:54.701Z,86.95
2018-02-11T23:55:22.608Z,87.10
2018-02-11T23:57:50.138Z,86.99
